sensor_id;sensor_type;location;lat;lon;timestamp;temperature;humidity
31455;DHT22;18084;53.028;8.834;2023-06-19T05:08:23;20.90;99.90
31455;DHT22;18084;53.028;8.834;2023-06-19T05:10:49;20.80;1.00
31455;DHT22;18084;53.028;8.834;2023-06-19T05:13:14;20.80;99.90
31455;DHT22;18084;53.028;8.834;2023-06-19T05:15:40;20.90;99.90
31455;DHT22;18084;53.028;8.834;2023-06-19T05:18:05;20.90;99.90
31455;DHT22;18084;53.028;8.834;2023-06-19T05:20:31;20.90;99.90
31455;DHT22;18084;53.028;8.834;2023-06-19T05:22:56;20.90;99.90
31455;DHT22;18084;53.028;8.834;2023-06-19T05:25:22;20.90;99.90
31455;DHT22;18084;53.028;8.834;2023-06-19T05:27:47;20.90;99.90
31455;DHT22;18084;53.028;8.834;2023-06-19T05:30:13;20.90;99.90
31455;DHT22;18084;53.028;8.834;2023-06-19T05:32:38;20.90;1.00
31455;DHT22;18084;53.028;8.834;2023-06-19T05:35:04;20.90;1.00
31455;DHT22;18084;53.028;8.834;2023-06-19T05:37:30;20.90;1.00
31455;DHT22;18084;53.028;8.834;2023-06-19T05:39:56;21.60;1.00
31455;DHT22;18084;53.028;8.834;2023-06-19T05:42:22;20.90;1.00
31455;DHT22;18084;53.028;8.834;2023-06-19T05:44:48;22.30;1.00
31455;DHT22;18084;53.028;8.834;2023-06-19T05:47:13;21.10;1.00
31455;DHT22;18084;53.028;8.834;2023-06-19T05:49:42;21.10;1.00
31455;DHT22;18084;53.028;8.834;2023-06-19T05:52:08;21.10;1.00
31455;DHT22;18084;53.028;8.834;2023-06-19T05:54:33;21.10;1.00
31455;DHT22;18084;53.028;8.834;2023-06-19T05:56:58;21.10;1.00
31455;DHT22;18084;53.028;8.834;2023-06-19T05:59:24;21.10;1.00
31455;DHT22;18084;53.028;8.834;2023-06-19T06:01:50;21.20;99.90
31455;DHT22;18084;53.028;8.834;2023-06-19T06:04:16;21.20;99.90
31455;DHT22;18084;53.028;8.834;2023-06-19T06:06:42;21.20;1.00
31455;DHT22;18084;53.028;8.834;2023-06-19T06:09:07;21.30;99.90
31455;DHT22;18084;53.028;8.834;2023-06-19T06:11:36;21.40;99.90
31455;DHT22;18084;53.028;8.834;2023-06-19T06:14:02;21.60;99.90
31455;DHT22;18084;53.028;8.834;2023-06-19T06:16:27;21.90;99.90
31455;DHT22;18084;53.028;8.834;2023-06-19T06:18:52;22.30;99.90
31455;DHT22;18084;53.028;8.834;2023-06-19T06:21:18;23.10;88.00
31455;DHT22;18084;53.028;8.834;2023-06-19T06:23:43;23.70;1.00
31455;DHT22;18084;53.028;8.834;2023-06-19T06:26:10;24.20;1.00
31455;DHT22;18084;53.028;8.834;2023-06-19T06:28:36;25.00;1.00
31455;DHT22;18084;53.028;8.834;2023-06-19T06:31:01;25.40;99.90
31455;DHT22;18084;53.028;8.834;2023-06-19T06:33:27;26.00;99.90
31455;DHT22;18084;53.028;8.834;2023-06-19T06:35:55;25.70;99.90
31455;DHT22;18084;53.028;8.834;2023-06-19T06:38:20;25.50;99.90
31455;DHT22;18084;53.028;8.834;2023-06-19T06:40:46;25.60;99.90
31455;DHT22;18084;53.028;8.834;2023-06-19T06:43:12;25.20;99.90
31455;DHT22;18084;53.028;8.834;2023-06-19T06:45:37;24.80;99.90
31455;DHT22;18084;53.028;8.834;2023-06-19T06:48:04;24.50;99.90
31455;DHT22;18084;53.028;8.834;2023-06-19T06:50:32;24.30;99.90
31455;DHT22;18084;53.028;8.834;2023-06-19T06:52:57;24.10;99.90
31455;DHT22;18084;53.028;8.834;2023-06-19T06:55:23;24.10;99.90
31455;DHT22;18084;53.028;8.834;2023-06-19T06:57:48;24.00;99.90
31455;DHT22;18084;53.028;8.834;2023-06-19T07:00:14;23.90;99.90
31455;DHT22;18084;53.028;8.834;2023-06-19T07:02:40;23.80;99.90
31455;DHT22;18084;53.028;8.834;2023-06-19T07:05:07;23.80;1.00
31455;DHT22;18084;53.028;8.834;2023-06-19T07:07:33;23.70;1.00
31455;DHT22;18084;53.028;8.834;2023-06-19T07:09:58;23.70;1.00
31455;DHT22;18084;53.028;8.834;2023-06-19T07:12:23;23.60;1.00
31455;DHT22;18084;53.028;8.834;2023-06-19T07:14:49;23.80;1.00
31455;DHT22;18084;53.028;8.834;2023-06-19T07:17:18;24.00;1.00
31455;DHT22;18084;53.028;8.834;2023-06-19T07:19:43;24.30;1.00
31455;DHT22;18084;53.028;8.834;2023-06-19T07:22:09;25.20;1.00
31455;DHT22;18084;53.028;8.834;2023-06-19T07:24:34;25.80;99.90
31455;DHT22;18084;53.028;8.834;2023-06-19T07:27:00;26.50;99.90
31455;DHT22;18084;53.028;8.834;2023-06-19T07:29:25;26.90;99.90
31455;DHT22;18084;53.028;8.834;2023-06-19T07:31:52;27.60;99.90
31455;DHT22;18084;53.028;8.834;2023-06-19T07:34:17;27.80;99.90
31455;DHT22;18084;53.028;8.834;2023-06-19T07:36:43;27.90;99.90
31455;DHT22;18084;53.028;8.834;2023-06-19T07:39:09;27.80;99.90
31455;DHT22;18084;53.028;8.834;2023-06-19T07:41:35;27.40;99.90
31455;DHT22;18084;53.028;8.834;2023-06-19T07:44:00;27.20;99.90
31455;DHT22;18084;53.028;8.834;2023-06-19T07:46:26;26.60;99.90
31455;DHT22;18084;53.028;8.834;2023-06-19T07:48:52;26.20;99.90
31455;DHT22;18084;53.028;8.834;2023-06-19T07:51:17;26.10;99.90
31455;DHT22;18084;53.028;8.834;2023-06-19T07:53:42;26.30;99.90
31455;DHT22;18084;53.028;8.834;2023-06-19T07:56:09;26.40;99.90
31455;DHT22;18084;53.028;8.834;2023-06-19T07:58:34;26.40;99.90
31455;DHT22;18084;53.028;8.834;2023-06-19T08:01:00;26.30;99.90
31455;DHT22;18084;53.028;8.834;2023-06-19T08:03:26;26.30;99.90
31455;DHT22;18084;53.028;8.834;2023-06-19T08:05:52;26.60;99.90
31455;DHT22;18084;53.028;8.834;2023-06-19T08:08:18;26.90;99.90
31455;DHT22;18084;53.028;8.834;2023-06-19T08:10:43;27.10;99.90
31455;DHT22;18084;53.028;8.834;2023-06-19T08:13:09;27.00;99.90
31455;DHT22;18084;53.028;8.834;2023-06-19T08:15:36;27.10;99.90
31455;DHT22;18084;53.028;8.834;2023-06-19T08:18:02;27.10;99.90
31455;DHT22;18084;53.028;8.834;2023-06-19T08:20:28;27.10;99.90
31455;DHT22;18084;53.028;8.834;2023-06-19T08:22:53;27.40;99.90
31455;DHT22;18084;53.028;8.834;2023-06-19T08:25:19;27.50;99.90
31455;DHT22;18084;53.028;8.834;2023-06-19T08:27:44;27.50;99.90
31455;DHT22;18084;53.028;8.834;2023-06-19T08:30:10;27.30;99.90
31455;DHT22;18084;53.028;8.834;2023-06-19T08:32:36;27.20;99.90
31455;DHT22;18084;53.028;8.834;2023-06-19T08:35:02;27.20;99.90
31455;DHT22;18084;53.028;8.834;2023-06-19T08:37:28;27.30;99.90
31455;DHT22;18084;53.028;8.834;2023-06-19T08:39:54;28.50;99.90
31455;DHT22;18084;53.028;8.834;2023-06-19T08:42:21;29.20;99.90
31455;DHT22;18084;53.028;8.834;2023-06-19T08:44:48;27.50;99.90
31455;DHT22;18084;53.028;8.834;2023-06-19T08:47:14;27.80;99.90
31455;DHT22;18084;53.028;8.834;2023-06-19T08:49:40;27.70;99.90
31455;DHT22;18084;53.028;8.834;2023-06-19T08:52:06;27.50;99.90
31455;DHT22;18084;53.028;8.834;2023-06-19T08:54:32;27.90;99.90
31455;DHT22;18084;53.028;8.834;2023-06-19T08:57:01;28.80;99.90
31455;DHT22;18084;53.028;8.834;2023-06-19T08:59:27;29.70;99.90
31455;DHT22;18084;53.028;8.834;2023-06-19T09:01:54;29.20;99.90
31455;DHT22;18084;53.028;8.834;2023-06-19T09:04:22;29.10;99.90
31455;DHT22;18084;53.028;8.834;2023-06-19T09:06:54;29.50;99.90
31455;DHT22;18084;53.028;8.834;2023-06-19T09:09:20;29.70;99.90
31455;DHT22;18084;53.028;8.834;2023-06-19T09:12:12;30.40;99.90
31455;DHT22;18084;53.028;8.834;2023-06-19T09:14:39;29.70;99.90
31455;DHT22;18084;53.028;8.834;2023-06-19T09:17:14;29.50;99.90
31455;DHT22;18084;53.028;8.834;2023-06-19T09:19:50;29.60;99.90
31455;DHT22;18084;53.028;8.834;2023-06-19T09:22:17;30.30;99.90
31455;DHT22;18084;53.028;8.834;2023-06-19T09:24:47;29.90;99.90
31455;DHT22;18084;53.028;8.834;2023-06-19T09:27:14;30.10;99.90
31455;DHT22;18084;53.028;8.834;2023-06-19T09:29:43;31.10;99.90
31455;DHT22;18084;53.028;8.834;2023-06-19T09:32:22;30.00;99.90
31455;DHT22;18084;53.028;8.834;2023-06-19T09:34:49;30.60;99.90
31455;DHT22;18084;53.028;8.834;2023-06-19T09:37:25;29.50;99.90
31455;DHT22;18084;53.028;8.834;2023-06-19T09:40:03;29.70;99.90
31455;DHT22;18084;53.028;8.834;2023-06-19T09:42:42;30.60;99.90
31455;DHT22;18084;53.028;8.834;2023-06-19T09:45:12;29.40;99.90
31455;DHT22;18084;53.028;8.834;2023-06-19T09:47:45;28.90;99.90
31455;DHT22;18084;53.028;8.834;2023-06-19T09:50:13;28.30;99.90
31455;DHT22;18084;53.028;8.834;2023-06-19T09:52:40;28.00;99.90
31455;DHT22;18084;53.028;8.834;2023-06-19T09:55:07;30.80;99.90
31455;DHT22;18084;53.028;8.834;2023-06-19T09:57:34;28.90;99.90
31455;DHT22;18084;53.028;8.834;2023-06-19T10:00:03;30.00;99.90
31455;DHT22;18084;53.028;8.834;2023-06-19T10:02:36;28.50;99.90
31455;DHT22;18084;53.028;8.834;2023-06-19T10:05:02;29.80;99.90
31455;DHT22;18084;53.028;8.834;2023-06-19T10:07:34;27.90;99.90
31455;DHT22;18084;53.028;8.834;2023-06-19T10:10:04;28.10;99.90
31455;DHT22;18084;53.028;8.834;2023-06-19T10:12:37;29.40;99.90
31455;DHT22;18084;53.028;8.834;2023-06-19T10:15:10;28.40;99.90
31455;DHT22;18084;53.028;8.834;2023-06-19T10:17:38;28.70;99.90
31455;DHT22;18084;53.028;8.834;2023-06-19T10:20:04;30.80;99.90
31455;DHT22;18084;53.028;8.834;2023-06-19T10:22:31;29.50;99.90
31455;DHT22;18084;53.028;8.834;2023-06-19T10:24:59;29.20;99.90
31455;DHT22;18084;53.028;8.834;2023-06-19T10:27:25;28.90;99.90
31455;DHT22;18084;53.028;8.834;2023-06-19T10:29:54;28.20;99.90
31455;DHT22;18084;53.028;8.834;2023-06-19T10:32:23;28.60;99.90
31455;DHT22;18084;53.028;8.834;2023-06-19T10:34:49;27.90;99.90
31455;DHT22;18084;53.028;8.834;2023-06-19T10:37:15;30.30;99.90
31455;DHT22;18084;53.028;8.834;2023-06-19T10:39:42;26.90;99.90
31455;DHT22;18084;53.028;8.834;2023-06-19T10:42:10;28.70;99.90
31455;DHT22;18084;53.028;8.834;2023-06-19T10:44:36;27.90;99.90
31455;DHT22;18084;53.028;8.834;2023-06-19T10:47:07;29.00;99.90
31455;DHT22;18084;53.028;8.834;2023-06-19T10:49:32;27.50;99.90
31455;DHT22;18084;53.028;8.834;2023-06-19T10:51:59;27.10;99.90
31455;DHT22;18084;53.028;8.834;2023-06-19T10:54:38;27.30;99.90
31455;DHT22;18084;53.028;8.834;2023-06-19T10:57:04;27.10;99.90
31455;DHT22;18084;53.028;8.834;2023-06-19T10:59:34;27.00;99.90
31455;DHT22;18084;53.028;8.834;2023-06-19T11:02:00;28.50;99.90
31455;DHT22;18084;53.028;8.834;2023-06-19T11:04:26;26.20;99.90
31455;DHT22;18084;53.028;8.834;2023-06-19T11:06:55;26.40;99.90
31455;DHT22;18084;53.028;8.834;2023-06-19T11:09:33;26.70;99.90
31455;DHT22;18084;53.028;8.834;2023-06-19T11:12:01;26.90;99.90
31455;DHT22;18084;53.028;8.834;2023-06-19T11:14:39;26.90;1.00
31455;DHT22;18084;53.028;8.834;2023-06-19T11:17:07;28.40;1.00
31455;DHT22;18084;53.028;8.834;2023-06-19T13:36:45;27.20;1.00
31455;DHT22;18084;53.028;8.834;2023-06-19T13:39:12;27.60;99.90
31455;DHT22;18084;53.028;8.834;2023-06-19T13:41:38;27.50;99.90
31455;DHT22;18084;53.028;8.834;2023-06-19T13:44:04;27.70;99.90
31455;DHT22;18084;53.028;8.834;2023-06-19T13:46:29;27.50;99.90
31455;DHT22;18084;53.028;8.834;2023-06-19T13:48:57;28.10;99.90
31455;DHT22;18084;53.028;8.834;2023-06-19T13:51:23;27.40;99.90
31455;DHT22;18084;53.028;8.834;2023-06-19T13:53:49;27.10;99.90
31455;DHT22;18084;53.028;8.834;2023-06-19T13:56:15;27.60;99.90
31455;DHT22;18084;53.028;8.834;2023-06-19T13:58:41;27.50;99.90
31455;DHT22;18084;53.028;8.834;2023-06-19T14:01:06;26.70;99.90
31455;DHT22;18084;53.028;8.834;2023-06-19T14:03:36;27.60;99.90
31455;DHT22;18084;53.028;8.834;2023-06-19T14:06:02;28.50;99.90
31455;DHT22;18084;53.028;8.834;2023-06-19T14:08:27;27.50;99.90
31455;DHT22;18084;53.028;8.834;2023-06-19T14:10:53;27.50;99.90
31455;DHT22;18084;53.028;8.834;2023-06-19T14:13:18;27.60;99.90
31455;DHT22;18084;53.028;8.834;2023-06-19T14:15:44;27.50;99.90
31455;DHT22;18084;53.028;8.834;2023-06-19T14:18:09;27.40;99.90
31455;DHT22;18084;53.028;8.834;2023-06-19T14:20:35;27.50;99.90
31455;DHT22;18084;53.028;8.834;2023-06-19T14:23:00;27.60;99.90
31455;DHT22;18084;53.028;8.834;2023-06-19T14:25:26;27.70;99.90
31455;DHT22;18084;53.028;8.834;2023-06-19T14:27:51;27.90;99.90
31455;DHT22;18084;53.028;8.834;2023-06-19T14:30:17;27.80;99.90
31455;DHT22;18084;53.028;8.834;2023-06-19T14:32:44;28.00;99.90
31455;DHT22;18084;53.028;8.834;2023-06-19T14:35:10;27.70;99.90
31455;DHT22;18084;53.028;8.834;2023-06-19T14:37:35;28.00;99.90
31455;DHT22;18084;53.028;8.834;2023-06-19T14:40:01;27.80;99.90
31455;DHT22;18084;53.028;8.834;2023-06-19T14:42:27;27.90;99.90
31455;DHT22;18084;53.028;8.834;2023-06-19T14:44:52;28.90;99.90
31455;DHT22;18084;53.028;8.834;2023-06-19T14:47:18;27.60;99.90
31455;DHT22;18084;53.028;8.834;2023-06-19T14:49:43;27.60;99.90
31455;DHT22;18084;53.028;8.834;2023-06-19T14:52:09;27.80;99.90
31455;DHT22;18084;53.028;8.834;2023-06-19T14:54:35;27.90;99.90
31455;DHT22;18084;53.028;8.834;2023-06-19T14:57:00;28.00;99.90
31455;DHT22;18084;53.028;8.834;2023-06-19T14:59:26;28.20;99.90
31455;DHT22;18084;53.028;8.834;2023-06-19T15:01:51;28.30;99.90
31455;DHT22;18084;53.028;8.834;2023-06-19T15:04:17;28.00;99.90
31455;DHT22;18084;53.028;8.834;2023-06-19T15:06:42;28.10;99.90
31455;DHT22;18084;53.028;8.834;2023-06-19T15:09:08;28.20;99.90
31455;DHT22;18084;53.028;8.834;2023-06-19T15:11:34;28.40;99.90
31455;DHT22;18084;53.028;8.834;2023-06-19T15:14:00;28.50;99.90
31455;DHT22;18084;53.028;8.834;2023-06-19T15:16:25;28.80;99.90
31455;DHT22;18084;53.028;8.834;2023-06-19T15:18:54;28.50;99.90
31455;DHT22;18084;53.028;8.834;2023-06-19T15:21:19;28.40;99.90
31455;DHT22;18084;53.028;8.834;2023-06-19T15:23:45;28.30;99.90
31455;DHT22;18084;53.028;8.834;2023-06-19T15:26:10;28.60;99.90
31455;DHT22;18084;53.028;8.834;2023-06-19T15:28:36;28.40;99.90
31455;DHT22;18084;53.028;8.834;2023-06-19T15:31:02;28.30;99.90
31455;DHT22;18084;53.028;8.834;2023-06-19T15:33:28;28.30;99.90
31455;DHT22;18084;53.028;8.834;2023-06-19T15:35:53;28.20;99.90
31455;DHT22;18084;53.028;8.834;2023-06-19T15:38:19;28.20;99.90
31455;DHT22;18084;53.028;8.834;2023-06-19T15:40:45;29.00;99.90
31455;DHT22;18084;53.028;8.834;2023-06-19T15:43:14;28.60;99.90
31455;DHT22;18084;53.028;8.834;2023-06-19T15:45:42;28.70;99.90
31455;DHT22;18084;53.028;8.834;2023-06-19T15:48:07;28.90;99.90
31455;DHT22;18084;53.028;8.834;2023-06-19T15:50:33;28.70;99.90
31455;DHT22;18084;53.028;8.834;2023-06-19T15:52:59;29.20;99.90
31455;DHT22;18084;53.028;8.834;2023-06-19T15:55:27;28.40;99.90
31455;DHT22;18084;53.028;8.834;2023-06-19T15:57:53;27.90;99.90
31455;DHT22;18084;53.028;8.834;2023-06-19T16:00:19;29.40;99.90
31455;DHT22;18084;53.028;8.834;2023-06-19T16:02:45;28.50;99.90
31455;DHT22;18084;53.028;8.834;2023-06-19T16:05:14;29.20;99.90
31455;DHT22;18084;53.028;8.834;2023-06-19T16:07:41;28.60;99.90
31455;DHT22;18084;53.028;8.834;2023-06-19T16:10:07;28.60;99.90
31455;DHT22;18084;53.028;8.834;2023-06-19T16:12:32;28.80;99.90
31455;DHT22;18084;53.028;8.834;2023-06-19T16:14:58;28.90;99.90
31455;DHT22;18084;53.028;8.834;2023-06-19T16:17:23;29.00;99.90
31455;DHT22;18084;53.028;8.834;2023-06-19T16:19:49;28.80;99.90
31455;DHT22;18084;53.028;8.834;2023-06-19T16:22:14;28.70;99.90
31455;DHT22;18084;53.028;8.834;2023-06-19T16:24:40;28.70;99.90
31455;DHT22;18084;53.028;8.834;2023-06-19T16:27:08;28.50;99.90
31455;DHT22;18084;53.028;8.834;2023-06-19T16:29:34;28.40;99.90
31455;DHT22;18084;53.028;8.834;2023-06-19T16:31:59;28.50;99.90
31455;DHT22;18084;53.028;8.834;2023-06-19T16:34:25;28.40;99.90
31455;DHT22;18084;53.028;8.834;2023-06-19T16:36:51;28.40;99.90
31455;DHT22;18084;53.028;8.834;2023-06-19T16:39:17;28.40;99.90
31455;DHT22;18084;53.028;8.834;2023-06-19T16:41:43;28.20;99.90
31455;DHT22;18084;53.028;8.834;2023-06-19T16:44:09;28.30;99.90
31455;DHT22;18084;53.028;8.834;2023-06-19T16:46:34;28.40;99.90
31455;DHT22;18084;53.028;8.834;2023-06-19T16:49:00;28.20;99.90
31455;DHT22;18084;53.028;8.834;2023-06-19T16:51:26;28.40;99.90
31455;DHT22;18084;53.028;8.834;2023-06-19T16:53:51;28.10;99.90
31455;DHT22;18084;53.028;8.834;2023-06-19T16:56:17;28.10;99.90
31455;DHT22;18084;53.028;8.834;2023-06-19T16:58:42;28.20;99.90
31455;DHT22;18084;53.028;8.834;2023-06-19T17:01:08;28.10;99.90
31455;DHT22;18084;53.028;8.834;2023-06-19T17:03:33;27.90;99.90
31455;DHT22;18084;53.028;8.834;2023-06-19T17:05:59;27.90;99.90
31455;DHT22;18084;53.028;8.834;2023-06-19T17:08:24;27.90;99.90
31455;DHT22;18084;53.028;8.834;2023-06-19T17:10:50;27.80;99.90
31455;DHT22;18084;53.028;8.834;2023-06-19T17:13:16;27.80;99.90
31455;DHT22;18084;53.028;8.834;2023-06-19T17:15:41;27.70;99.90
31455;DHT22;18084;53.028;8.834;2023-06-19T17:18:07;27.60;99.90
31455;DHT22;18084;53.028;8.834;2023-06-19T17:20:32;27.70;99.90
31455;DHT22;18084;53.028;8.834;2023-06-19T17:22:58;27.50;99.90
31455;DHT22;18084;53.028;8.834;2023-06-19T17:25:24;27.30;99.90
31455;DHT22;18084;53.028;8.834;2023-06-19T17:27:50;27.30;99.90
31455;DHT22;18084;53.028;8.834;2023-06-19T17:30:16;27.30;99.90
31455;DHT22;18084;53.028;8.834;2023-06-19T17:32:41;28.20;99.90
31455;DHT22;18084;53.028;8.834;2023-06-19T17:35:09;27.10;99.90
31455;DHT22;18084;53.028;8.834;2023-06-19T17:37:35;27.00;99.90
31455;DHT22;18084;53.028;8.834;2023-06-19T17:40:02;26.90;99.90
31455;DHT22;18084;53.028;8.834;2023-06-19T17:42:29;26.90;99.90
31455;DHT22;18084;53.028;8.834;2023-06-19T17:44:55;26.80;99.90
31455;DHT22;18084;53.028;8.834;2023-06-19T17:47:20;26.70;99.90
31455;DHT22;18084;53.028;8.834;2023-06-19T17:49:46;26.70;99.90
31455;DHT22;18084;53.028;8.834;2023-06-19T17:52:14;26.70;99.90
31455;DHT22;18084;53.028;8.834;2023-06-19T17:54:40;26.60;99.90
31455;DHT22;18084;53.028;8.834;2023-06-19T17:57:06;26.50;99.90
31455;DHT22;18084;53.028;8.834;2023-06-19T17:59:32;26.50;99.90
31455;DHT22;18084;53.028;8.834;2023-06-19T18:01:59;26.50;99.90
31455;DHT22;18084;53.028;8.834;2023-06-19T18:04:24;26.50;99.90
31455;DHT22;18084;53.028;8.834;2023-06-19T18:06:50;26.50;99.90
31455;DHT22;18084;53.028;8.834;2023-06-19T18:09:15;26.30;99.90
31455;DHT22;18084;53.028;8.834;2023-06-19T18:11:41;26.30;99.90
31455;DHT22;18084;53.028;8.834;2023-06-19T18:14:06;26.30;99.90
31455;DHT22;18084;53.028;8.834;2023-06-19T18:16:32;26.20;99.90
31455;DHT22;18084;53.028;8.834;2023-06-19T18:18:59;26.20;99.90
31455;DHT22;18084;53.028;8.834;2023-06-19T18:21:25;26.00;99.90
31455;DHT22;18084;53.028;8.834;2023-06-19T18:23:50;25.90;99.90
31455;DHT22;18084;53.028;8.834;2023-06-19T18:26:16;25.80;99.90
31455;DHT22;18084;53.028;8.834;2023-06-19T18:28:41;25.70;99.90
31455;DHT22;18084;53.028;8.834;2023-06-19T18:31:07;25.50;99.90
31455;DHT22;18084;53.028;8.834;2023-06-19T18:33:32;25.60;99.90
31455;DHT22;18084;53.028;8.834;2023-06-19T18:35:58;25.40;99.90
31455;DHT22;18084;53.028;8.834;2023-06-19T18:38:23;25.40;99.90
31455;DHT22;18084;53.028;8.834;2023-06-19T18:40:49;25.40;99.90
31455;DHT22;18084;53.028;8.834;2023-06-19T18:43:15;25.30;99.90
31455;DHT22;18084;53.028;8.834;2023-06-19T18:45:43;25.20;99.90
31455;DHT22;18084;53.028;8.834;2023-06-19T18:48:09;25.30;99.90
31455;DHT22;18084;53.028;8.834;2023-06-19T18:50:35;25.00;99.90
31455;DHT22;18084;53.028;8.834;2023-06-19T18:53:01;25.10;99.90
31455;DHT22;18084;53.028;8.834;2023-06-19T18:55:27;25.00;99.90
31455;DHT22;18084;53.028;8.834;2023-06-19T18:57:52;25.00;99.90
31455;DHT22;18084;53.028;8.834;2023-06-19T19:00:18;24.80;99.90
31455;DHT22;18084;53.028;8.834;2023-06-19T19:02:45;24.80;99.90
31455;DHT22;18084;53.028;8.834;2023-06-19T19:05:10;24.70;99.90
31455;DHT22;18084;53.028;8.834;2023-06-19T19:07:36;24.60;99.90
31455;DHT22;18084;53.028;8.834;2023-06-19T19:10:02;24.50;99.90
31455;DHT22;18084;53.028;8.834;2023-06-19T19:12:27;24.40;99.90
31455;DHT22;18084;53.028;8.834;2023-06-19T19:14:53;24.30;99.90
31455;DHT22;18084;53.028;8.834;2023-06-19T19:17:18;24.30;99.90
31455;DHT22;18084;53.028;8.834;2023-06-19T19:19:44;24.20;99.90
31455;DHT22;18084;53.028;8.834;2023-06-19T19:22:09;24.10;99.90
31455;DHT22;18084;53.028;8.834;2023-06-19T19:24:35;24.20;99.90
31455;DHT22;18084;53.028;8.834;2023-06-19T19:27:00;24.00;99.90
31455;DHT22;18084;53.028;8.834;2023-06-19T19:29:26;23.90;99.90
31455;DHT22;18084;53.028;8.834;2023-06-19T19:31:51;23.80;99.90
31455;DHT22;18084;53.028;8.834;2023-06-19T19:34:17;23.80;99.90
31455;DHT22;18084;53.028;8.834;2023-06-19T19:36:47;23.70;99.90
31455;DHT22;18084;53.028;8.834;2023-06-19T19:39:13;23.60;99.90
31455;DHT22;18084;53.028;8.834;2023-06-19T19:41:38;23.50;99.90
31455;DHT22;18084;53.028;8.834;2023-06-19T19:44:09;23.50;99.90
31455;DHT22;18084;53.028;8.834;2023-06-19T19:46:38;23.40;99.90
31455;DHT22;18084;53.028;8.834;2023-06-19T19:49:07;23.40;99.90
31455;DHT22;18084;53.028;8.834;2023-06-19T19:56:43;23.20;99.90
31455;DHT22;18084;53.028;8.834;2023-06-19T19:59:08;23.20;99.90
31455;DHT22;18084;53.028;8.834;2023-06-19T20:01:34;23.10;99.90
31455;DHT22;18084;53.028;8.834;2023-06-19T20:04:00;22.50;99.90
31455;DHT22;18084;53.028;8.834;2023-06-19T20:06:25;24.20;99.90
31455;DHT22;18084;53.028;8.834;2023-06-19T20:08:51;22.20;99.90
